tititudorancea.com
Station Historical Data
Daily Summary for January 29, 2019 Units:  Metric    English   Both
« Previous Day
Next Day »
Daily Weekly Monthly Yearly Custom
  High: Low: Average:
Temperature: -17.8 °C 11.6 °C 22.9 °C
Dew Point: -17.8 °C -1 °C 9.3 °C
Humidity: Humidity % 12 % 52 %
Wind Speed: 0 km/h 0 km/h 12.9 km/h
Wind Gust: 0 km/h - -
Wind:- - WSW
Pressure: 0 hPa 1006 hPa -
Precipitation: 0 mm    
Historical Graphs
 
 
Ararat weather Find more about Weather in Ararat, AU


 



 


Tabular Data for January 29, 2019
Time Temperature Dew Point Pressure Wind Wind Speed Wind Gust Humidity Rainfall Rate (Hourly)
-17.8 °C -17.8 °C 0 hPa Calm     Humidity % 0 mm
00:04 16.5 °C 12.7 °C 1011.7 hPa South 9.3 km/h 4.8 km/h 78 % 0 mm
00:09 16.4 °C 12.6 °C 1011.7 hPa South 11.1 km/h 6.1 km/h 78 % 0 mm
00:14 16.3 °C 12.7 °C 1011.7 hPa South 9.3 km/h 6 km/h 79 % 0 mm
00:19 16.2 °C 12.6 °C 1011.7 hPa South 9.3 km/h 8.2 km/h 79 % 0 mm
00:24 16.2 °C 12.5 °C 1011.4 hPa South 7.4 km/h 4.8 km/h 79 % 0 mm
00:29 16.1 °C 12.7 °C 1011.4 hPa South 6.4 km/h 5.3 km/h 80 % 0 mm
00:34 16.1 °C 12.6 °C 1011.4 hPa South 7.4 km/h 3.9 km/h 80 % 0 mm
00:39 16 °C 12.6 °C 1011.4 hPa South 3.7 km/h 1.1 km/h 80 % 0 mm
00:44 15.9 °C 12.4 °C 1011.1 hPa North 3.7 km/h 1 km/h 80 % 0 mm
00:49 15.8 °C 12.3 °C 1011.1 hPa South 6.4 km/h 4 km/h 80 % 0 mm
00:54 15.7 °C 12.4 °C 1011.1 hPa South 7.4 km/h 3.1 km/h 81 % 0 mm
00:59 15.7 °C 12.4 °C 1011.1 hPa South 7.4 km/h 4.8 km/h 81 % 0 mm
01:04 15.6 °C 12.6 °C 1011.1 hPa South 7.4 km/h 5.5 km/h 82 % 0 mm
01:09 15.6 °C 12.5 °C 1010.7 hPa North 5.6 km/h 4 km/h 82 % 0 mm
01:14 15.5 °C 12.4 °C 1010.7 hPa North 5.6 km/h 5.8 km/h 82 % 0 mm
01:19 15.5 °C 12.4 °C 1010.7 hPa South 6.4 km/h 5.5 km/h 82 % 0 mm
01:24 15.5 °C 12.4 °C 1010.4 hPa South 7.4 km/h 5.8 km/h 82 % 0 mm
01:29 15.4 °C 12.4 °C 1010.4 hPa South 5.6 km/h 2.9 km/h 82 % 0 mm
01:34 15.4 °C 12.6 °C 1010.4 hPa South 3.7 km/h 3.7 km/h 83 % 0 mm
01:39 15.4 °C 12.5 °C 1010.4 hPa South 5.6 km/h 2.6 km/h 83 % 0 mm
01:44 15.4 °C 12.5 °C 1010.4 hPa South 3.7 km/h 1.6 km/h 83 % 0 mm
01:49 15.4 °C 12.5 °C 1010 hPa South 3.7 km/h 0.3 km/h 83 % 0 mm
01:54 15.3 °C 12.4 °C 1010 hPa North 1.9 km/h 2.6 km/h 83 % 0 mm
01:59 15.2 °C 12.3 °C 1010 hPa South 1.9 km/h   83 % 0 mm
02:04 15.2 °C 12.3 °C 1009.7 hPa South 3.7 km/h 2.4 km/h 83 % 0 mm
02:09 15.1 °C 12.2 °C 1009.7 hPa North 5.6 km/h 3.5 km/h 83 % 0 mm
02:14 15 °C 12.3 °C 1009.7 hPa South 3.7 km/h 3.2 km/h 84 % 0 mm
02:19 14.9 °C 12.2 °C 1009.7 hPa South 3.7 km/h 2.7 km/h 84 % 0 mm
02:24 15 °C 12.5 °C 1009.7 hPa South 7.4 km/h 4.8 km/h 85 % 0 mm
02:29 15.1 °C 12.6 °C 1009.7 hPa South 6.4 km/h 5 km/h 85 % 0 mm
02:34 15.1 °C 12.6 °C 1009.7 hPa South 8 km/h 5.5 km/h 85 % 0 mm
02:39 15.1 °C 12.6 °C 1009.4 hPa South 8 km/h 7.6 km/h 85 % 0 mm
02:44 15.2 °C 12.7 °C 1009.4 hPa South 11.1 km/h 6.6 km/h 85 % 0 mm
02:49 15.2 °C 12.6 °C 1009.4 hPa South 9.3 km/h 5 km/h 84 % 0 mm
02:54 15.2 °C 12.5 °C 1009.4 hPa South 8 km/h 5.8 km/h 84 % 0 mm
02:59 15.1 °C 12.4 °C 1009.4 hPa South 9.7 km/h 8.2 km/h 84 % 0 mm
03:04 15.1 °C 12.6 °C 1009.4 hPa South 9.3 km/h 8.4 km/h 85 % 0 mm
03:09 15.1 °C 12.6 °C 1009.4 hPa South 7.4 km/h 6.6 km/h 85 % 0 mm
03:14 15.1 °C 12.6 °C 1009.4 hPa South 7.4 km/h 1.6 km/h 85 % 0 mm
03:19 15.1 °C 12.6 °C 1009.4 hPa South 3.7 km/h 0.2 km/h 85 % 0 mm
03:24 15 °C 12.3 °C 1009.4 hPa Calm     84 % 0 mm
03:29 14.9 °C 12.2 °C 1009.4 hPa Calm     84 % 0 mm
03:34 14.8 °C 12.1 °C 1009.4 hPa Calm     84 % 0 mm
03:39 14.6 °C 11.9 °C 1009.4 hPa Calm     84 % 0 mm
03:44 14.4 °C 11.8 °C 1009.4 hPa Calm     84 % 0 mm
03:49 14.3 °C 11.8 °C 1009.4 hPa Calm     85 % 0 mm
03:54 14.2 °C 11.7 °C 1009 hPa Calm     85 % 0 mm
03:59 14.1 °C 11.7 °C 1009 hPa North 5.6 km/h 4.3 km/h 86 % 0 mm
04:04 14 °C 11.7 °C 1009 hPa Calm     86 % 0 mm
04:09 14 °C 11.9 °C 1009 hPa Calm     87 % 0 mm
04:14 13.9 °C 11.8 °C 1009 hPa Calm     87 % 0 mm
04:19 13.9 °C 11.8 °C 1009 hPa Calm     87 % 0 mm
04:24 13.9 °C 11.9 °C 1009 hPa North 1.6 km/h 0.2 km/h 88 % 0 mm
04:29 13.8 °C 11.7 °C 1009 hPa Calm     87 % 0 mm
04:34 13.7 °C 11.8 °C 1009 hPa Calm     88 % 0 mm
04:39 13.7 °C 11.6 °C 1009 hPa Calm     87 % 0 mm
04:44 13.6 °C 11.6 °C 1009 hPa Calm     88 % 0 mm
04:49 13.5 °C 11.6 °C 1009 hPa Calm     88 % 0 mm
04:54 13.5 °C 11.6 °C 1008.7 hPa Calm     88 % 0 mm
04:59 13.5 °C 11.7 °C 1008.7 hPa Calm     89 % 0 mm
05:04 13.5 °C 11.7 °C 1008.7 hPa Calm     89 % 0 mm
05:09 13.3 °C 11.6 °C 1008.7 hPa Calm     89 % 0 mm
05:14 13.3 °C 11.5 °C 1008.7 hPa Calm     89 % 0 mm
05:19 13.3 °C 11.5 °C 1009 hPa Calm     89 % 0 mm
05:24 13.2 °C 11.4 °C 1009 hPa Calm     89 % 0 mm
05:29 13 °C 11.2 °C 1009 hPa Calm     89 % 0 mm
05:34 12.9 °C 11.1 °C 1009 hPa Calm     89 % 0 mm
05:39 12.7 °C 10.9 °C 1009 hPa Calm     89 % 0 mm
05:44 12.6 °C 10.8 °C 1009 hPa Calm     89 % 0 mm
05:49 12.4 °C 10.7 °C 1009 hPa Calm     89 % 0 mm
05:54 12.4 °C 10.6 °C 1009 hPa Calm     89 % 0 mm
05:59 12.2 °C 10.4 °C 1009 hPa Calm     89 % 0 mm
06:04 12.2 °C 10.6 °C 1009 hPa Calm     90 % 0 mm
06:09 12.2 °C 10.6 °C 1009 hPa Calm     90 % 0 mm
06:14 12.2 °C 10.6 °C 1009 hPa Calm     90 % 0 mm
06:19 12.1 °C 10.5 °C 1009 hPa Calm     90 % 0 mm
06:24 12 °C 10.4 °C 1009 hPa South 1.9 km/h   90 % 0 mm
06:29 11.9 °C 10.3 °C 1009 hPa Calm     90 % 0 mm
06:34 11.9 °C 10.3 °C 1009 hPa Calm     90 % 0 mm
06:39 11.8 °C 10.2 °C 1009 hPa Calm     90 % 0 mm
06:44 11.6 °C 10 °C 1009 hPa Calm     90 % 0 mm
06:49 11.6 °C 10.2 °C 1009 hPa Calm     91 % 0 mm
06:54 11.6 °C 10.2 °C 1009 hPa Calm     91 % 0 mm
06:59 11.6 °C 10.2 °C 1009 hPa Calm     91 % 0 mm
07:04 11.7 °C 10.2 °C 1009 hPa Calm     91 % 0 mm
07:09 11.8 °C 10.5 °C 1009 hPa Calm     92 % 0 mm
07:14 11.9 °C 10.6 °C 1009 hPa Calm     92 % 0 mm
07:19 12 °C 10.7 °C 1009 hPa Calm     92 % 0 mm
07:24 12.3 °C 11.2 °C 1009 hPa Calm     93 % 0 mm
07:29 12.6 °C 11.5 °C 1009 hPa Calm     93 % 0 mm
07:34 12.9 °C 11.8 °C 1009 hPa Calm     93 % 0 mm
07:39 13.2 °C 12.1 °C 1009 hPa Calm     93 % 0 mm
07:44 13.4 °C 12.3 °C 1009 hPa Calm     93 % 0 mm
07:49 13.7 °C 12.6 °C 1009 hPa Calm     93 % 0 mm
07:54 14 °C 12.9 °C 1009 hPa Calm     93 % 0 mm
07:59 14.4 °C 13.3 °C 1009 hPa South 3.7 km/h 2.3 km/h 93 % 0 mm
08:04 14.9 °C 13.6 °C 1009 hPa South 3.7 km/h 1.9 km/h 92 % 0 mm
08:09 15.4 °C 13.9 °C 1009 hPa South 5.6 km/h 1.8 km/h 91 % 0 mm
08:14 16 °C 14 °C 1009 hPa South 7.4 km/h 3.7 km/h 88 % 0 mm
08:19 16.8 °C 13.7 °C 1009 hPa South 7.4 km/h 5.8 km/h 82 % 0 mm
08:24 17.6 °C 13.9 °C 1009.4 hPa Calm     79 % 0 mm
08:29 18.3 °C 13.8 °C 1009.4 hPa Calm     75 % 0 mm
08:34 19 °C 13.6 °C 1009.4 hPa Calm     71 % 0 mm
08:39 20 °C 14.3 °C 1009.4 hPa South 3.7 km/h 0.8 km/h 70 % 0 mm
08:44 20.6 °C 14.3 °C 1009.4 hPa Calm     67 % 0 mm
08:49 21.3 °C 14.4 °C 1009.4 hPa South 1.6 km/h   65 % 0 mm
08:54 22 °C 13.1 °C 1009.4 hPa South 7.4 km/h 2.6 km/h 57 % 0 mm
08:59 22.5 °C 12.2 °C 1009.4 hPa South 9.3 km/h 8.5 km/h 52 % 0 mm
09:04 22.9 °C 12.3 °C 1009.4 hPa South 6.4 km/h 2.9 km/h 51 % 0 mm
09:09 23.4 °C 11.4 °C 1009.4 hPa NNE 16.7 km/h 9.2 km/h 47 % 0 mm
09:14 23.8 °C 11.1 °C 1009.4 hPa North 9.3 km/h 9 km/h 45 % 0 mm
09:19 24.2 °C 11.2 °C 1009 hPa North 14.5 km/h 8.4 km/h 44 % 0 mm
09:24 24.3 °C 10.9 °C 1009 hPa NNW 13 km/h 8.4 km/h 43 % 0 mm
09:29 24.6 °C 10.8 °C 1009 hPa North 7.4 km/h 5.1 km/h 42 % 0 mm
09:34 24.9 °C 10.7 °C 1009 hPa NNW 11.1 km/h 8.2 km/h 41 % 0 mm
09:39 24.8 °C 10.6 °C 1009 hPa North 14.8 km/h 9.3 km/h 41 % 0 mm
09:44 24.9 °C 11.1 °C 1009 hPa NNW 13 km/h 8.5 km/h 42 % 0 mm
09:49 25.2 °C 10.6 °C 1009 hPa North 14.8 km/h 6 km/h 40 % 0 mm
09:54 25.3 °C 10.7 °C 1009 hPa NNW 13 km/h 11.4 km/h 40 % 0 mm
09:59 25.6 °C 11.3 °C 1009 hPa North 14.8 km/h 9.7 km/h 41 % 0 mm
10:04 25.8 °C 11.2 °C 1009 hPa North 13 km/h 7.7 km/h 40 % 0 mm
10:09 25.8 °C 11.2 °C 1009 hPa North 14.8 km/h 9.3 km/h 40 % 0 mm
10:14 26.2 °C 10.7 °C 1009 hPa NNW 16.7 km/h 7.1 km/h 38 % 0 mm
10:19 26.5 °C 10.6 °C 1009 hPa NNW 11.3 km/h 9.5 km/h 37 % 0 mm
10:24 26.4 °C 10.2 °C 1009 hPa NW 18.5 km/h 8.5 km/h 36 % 0 mm
10:29 26.9 °C 10.1 °C 1009 hPa North 18.5 km/h 8.4 km/h 35 % 0 mm
10:34 27.1 °C 10.3 °C 1008.7 hPa North 14.8 km/h 9 km/h 35 % 0 mm
10:39 27.4 °C 10.2 °C 1008.7 hPa North 22.2 km/h 14.8 km/h 34 % 0 mm
10:44 27.5 °C 10.2 °C 1008.7 hPa North 18.5 km/h 13 km/h 34 % 0 mm
10:49 27.7 °C 10.4 °C 1008.7 hPa North 13 km/h 8 km/h 34 % 0 mm
10:54 27.9 °C 10.6 °C 1008.7 hPa NNW 14.8 km/h 9 km/h 34 % 0 mm
10:59 28.2 °C 10.4 °C 1008.7 hPa NNW 18.5 km/h 7.7 km/h 33 % 0 mm
11:04 28.3 °C 10.5 °C 1008.7 hPa NNW 14.8 km/h 6.3 km/h 33 % 0 mm
11:09 28.7 °C 9.9 °C 1008.7 hPa North 14.8 km/h 9 km/h 31 % 0 mm
11:14 28.7 °C 9.4 °C 1008.7 hPa NW 18.5 km/h 13.7 km/h 30 % 0 mm
11:19 28.6 °C 9.3 °C 1008.7 hPa NW 20.9 km/h 17.2 km/h 30 % 0 mm
11:24 28.6 °C 9.3 °C 1008.7 hPa North 20.4 km/h 15.3 km/h 30 % 0 mm
11:29 28.8 °C 9.5 °C 1008.7 hPa NNW 24.1 km/h 12.1 km/h 30 % 0 mm
11:34 29 °C 9.2 °C 1008.7 hPa NW 16.7 km/h 12.6 km/h 29 % 0 mm
11:39 29.2 °C 8.8 °C 1009 hPa NNW 18.5 km/h 14.2 km/h 28 % 0 mm
11:44 29.3 °C 8.3 °C 1008.7 hPa NW 24.1 km/h 16.7 km/h 27 % 0 mm
11:49 29.3 °C 8.9 °C 1008.7 hPa NW 22.2 km/h 17.9 km/h 28 % 0 mm
11:54 29.3 °C 8.4 °C 1008.7 hPa North 27.8 km/h 20.9 km/h 27 % 0 mm
11:59 29.7 °C 8.7 °C 1008.7 hPa NNW 19.3 km/h 11.9 km/h 27 % 0 mm
12:04 29.8 °C 7.1 °C 1008.7 hPa WNW 25.9 km/h 15.9 km/h 24 % 0 mm
12:09 30 °C 7.2 °C 1008.4 hPa North 25.9 km/h 9.2 km/h 24 % 0 mm
12:14 30.4 °C 7.6 °C 1008.4 hPa NNW 25.7 km/h 14.6 km/h 24 % 0 mm
12:19 30.5 °C 7 °C 1008.4 hPa NNW 25.9 km/h 19.3 km/h 23 % 0 mm
12:24 30.1 °C 7.3 °C 1008.4 hPa NNW 18.5 km/h 17.9 km/h 24 % 0 mm
12:29 30.4 °C 8.2 °C 1008.4 hPa North 27.8 km/h 17.2 km/h 25 % 0 mm
12:34 30.5 °C 7.7 °C 1008.4 hPa NW 33.8 km/h 13.5 km/h 24 % 0 mm
12:39 30.4 °C 7.6 °C 1008.4 hPa North 31.5 km/h 24.3 km/h 24 % 0 mm
12:44 30.6 °C 7.7 °C 1008.4 hPa NNW 20.4 km/h 17.9 km/h 24 % 0 mm
12:49 30.7 °C 7.8 °C 1008.4 hPa WNW 29 km/h 22 km/h 24 % 0 mm
12:54 30.7 °C 8.4 °C 1008.4 hPa North 31.5 km/h 13.4 km/h 25 % 0 mm
12:59 30.7 °C 7.8 °C 1008 hPa NW 25.9 km/h 13.7 km/h 24 % 0 mm
13:04 30.6 °C 7.7 °C 1008 hPa NNW 37 km/h 21.9 km/h 24 % 0 mm
13:09 30.7 °C 7.8 °C 1008 hPa NNE 22.5 km/h 15.9 km/h 24 % 0 mm
13:14 30.7 °C 7.2 °C 1008 hPa NW 24.1 km/h 15.6 km/h 23 % 0 mm
13:19 31.1 °C 6.9 °C 1008 hPa WNW 24.1 km/h 15.9 km/h 22 % 0 mm
13:24 31.6 °C 7.2 °C 1008 hPa WNW 27.8 km/h 13 km/h 22 % 0 mm
13:29 31.6 °C 7.3 °C 1008 hPa North 29.6 km/h 23.3 km/h 22 % 0 mm
13:34 31.4 °C 7.2 °C 1008 hPa NW 20.4 km/h 16.4 km/h 22 % 0 mm
13:39 31.5 °C 7.2 °C 1007.7 hPa North 33.3 km/h 16.4 km/h 22 % 0 mm
13:44 31.6 °C 7.9 °C 1007.7 hPa NW 14.8 km/h 10.5 km/h 23 % 0 mm
13:49 31.6 °C 7.3 °C 1007.7 hPa WNW 31.5 km/h 24.5 km/h 22 % 0 mm
13:54 31.6 °C 7.9 °C 1007.7 hPa North 25.9 km/h 15.1 km/h 23 % 0 mm
13:59 31.8 °C 7.4 °C 1007.7 hPa NW 27.8 km/h 16.6 km/h 22 % 0 mm
14:04 31.9 °C 7.5 °C 1007.7 hPa West 16.7 km/h 10.9 km/h 22 % 0 mm
14:09 31.6 °C 7.3 °C 1007.3 hPa North 18.5 km/h 11.6 km/h 22 % 0 mm
14:14 31.7 °C 8.1 °C 1007.3 hPa NW 27.8 km/h 15.3 km/h 23 % 0 mm
14:19 31.7 °C 8.1 °C 1007.3 hPa North 20.4 km/h 10.6 km/h 23 % 0 mm
14:24 31.8 °C 7.4 °C 1007.3 hPa NW 25.9 km/h 11.6 km/h 22 % 0 mm
14:29 31.7 °C 7.4 °C 1007.3 hPa NNW 27.8 km/h 15.1 km/h 22 % 0 mm
14:34 31.9 °C 6.8 °C 1007.3 hPa NW 31.5 km/h 18.3 km/h 21 % 0 mm
14:39 31.9 °C 7.6 °C 1007 hPa North 22.2 km/h 12.9 km/h 22 % 0 mm
14:44 32.1 °C 7.7 °C 1007 hPa NW 29.6 km/h 12.7 km/h 22 % 0 mm
14:49 31.9 °C 6.8 °C 1007 hPa North 29.6 km/h 19.3 km/h 21 % 0 mm
14:54 31.9 °C 7.6 °C 1007 hPa NW 25.9 km/h 17.1 km/h 22 % 0 mm
14:59 32 °C 7.6 °C 1007 hPa North 24.1 km/h 16.4 km/h 22 % 0 mm
15:04 32.2 °C 7.8 °C 1007 hPa NW 19.3 km/h 16.7 km/h 22 % 0 mm
15:09 32.2 °C 7.8 °C 1006.7 hPa WNW 19.3 km/h 15.8 km/h 22 % 0 mm
15:14 32.6 °C 6.7 °C 1006.7 hPa West 22.2 km/h 14.8 km/h 20 % 0 mm
15:19 32.9 °C 6.9 °C 1006.7 hPa West 20.4 km/h 14.6 km/h 20 % 0 mm
15:24 32.8 °C 7.6 °C 1006.7 hPa West 20.4 km/h 13.2 km/h 21 % 0 mm
15:29 32.7 °C 7.5 °C 1006.7 hPa NW 14.8 km/h 12.1 km/h 21 % 0 mm
15:34 32.7 °C 7.5 °C 1006.7 hPa North 22.2 km/h 13.5 km/h 21 % 0 mm
15:39 32.9 °C 6.9 °C 1006.3 hPa West 11.1 km/h 8.2 km/h 20 % 0 mm
15:44 32.9 °C 6.9 °C 1006.7 hPa NW 29.6 km/h 21.2 km/h 20 % 0 mm
15:49 32.7 °C 6.8 °C 1006.3 hPa WSW 16.1 km/h 11.4 km/h 20 % 0 mm
15:54 32.8 °C 6.9 °C 1006.3 hPa NW 18.5 km/h 11.1 km/h 20 % 0 mm
15:59 33.1 °C 5.6 °C 1006.3 hPa North 16.7 km/h 10.9 km/h 18 % 0 mm
16:04 33.1 °C 4.8 °C 1006.3 hPa West 31.5 km/h 27.7 km/h 17 % 0 mm
16:09 33.1 °C 4.8 °C 1006.3 hPa WNW 31.5 km/h 17.9 km/h 17 % 0 mm
16:14 33.1 °C 3.9 °C 1006.3 hPa NNW 20.9 km/h 16.3 km/h 16 % 0 mm
16:19 32.9 °C 3.7 °C 1006.3 hPa NW 16.7 km/h 7.4 km/h 16 % 0 mm
16:24 33.2 °C 3.1 °C 1006.3 hPa NNW 22.2 km/h 15.1 km/h 15 % 0 mm
16:29 33.1 °C 3.9 °C 1006.3 hPa North 20.4 km/h 9.3 km/h 16 % 0 mm
16:34 33.1 °C 3.9 °C 1006.3 hPa NNW 22.2 km/h 17.4 km/h 16 % 0 mm
16:39 33.3 °C 3.1 °C 1006.3 hPa West 14.8 km/h 13.4 km/h 15 % 0 mm
16:44 33.5 °C 2.3 °C 1006.3 hPa NW 24.1 km/h 14.2 km/h 14 % 0 mm
16:49 33.2 °C 2.1 °C 1006.3 hPa WNW 18.5 km/h 11.3 km/h 14 % 0 mm
16:54 33 °C 2.9 °C 1006 hPa NW 13 km/h 9.5 km/h 15 % 0 mm
16:59 32.9 °C 2.9 °C 1006.3 hPa NW 24.1 km/h 19.3 km/h 15 % 0 mm
17:04 32.7 °C 2.7 °C 1006.3 hPa North 18.5 km/h 11.7 km/h 15 % 0 mm
17:09 32.7 °C 2.7 °C 1006.3 hPa NW 27.8 km/h 19.5 km/h 15 % 0 mm
17:14 32.8 °C 1.8 °C 1006.3 hPa NW 27.8 km/h 20.1 km/h 14 % 0 mm
17:19 32.6 °C 2.6 °C 1006.3 hPa NNW 18.5 km/h 6.3 km/h 15 % 0 mm
17:24 33.1 °C 1 °C 1006 hPa NW 14.8 km/h 10.6 km/h 13 % 0 mm
17:29 33.3 °C 2.2 °C 1006 hPa North 29.6 km/h 22.4 km/h 14 % 0 mm
17:34 33.3 °C 1.2 °C 1006.3 hPa WNW 27.8 km/h 16.7 km/h 13 % 0 mm
17:39 32.9 °C 0.9 °C 1006.3 hPa NW 22.2 km/h 14.2 km/h 13 % 0 mm
17:44 32.9 °C 0.8 °C 1006.3 hPa WNW 24.1 km/h 16.4 km/h 13 % 0 mm
17:49 33.1 °C 0.9 °C 1006.3 hPa WNW 16.7 km/h 10.6 km/h 13 % 0 mm
17:54 33.1 °C -0.1 °C 1006.3 hPa WNW 18.5 km/h 13.5 km/h 12 % 0 mm
17:59 33.1 °C -0.2 °C 1006.3 hPa WSW 20.9 km/h 14.8 km/h 12 % 0 mm
18:04 33.2 °C 0 °C 1006.3 hPa WNW 14.8 km/h 14.2 km/h 12 % 0 mm
18:09 33.2 °C 0 °C 1006.3 hPa NW 20.4 km/h 15.8 km/h 12 % 0 mm
18:14 33.4 °C 0.1 °C 1006.3 hPa WNW 18.5 km/h 12.9 km/h 12 % 0 mm
18:19 33.3 °C 1.1 °C 1006.3 hPa NW 13 km/h 5.8 km/h 13 % 0 mm
18:24 33.2 °C 1.1 °C 1006.3 hPa WNW 18.5 km/h 10.1 km/h 13 % 0 mm
18:29 33.1 °C -0.2 °C 1006.3 hPa NNW 14.5 km/h 11.1 km/h 12 % 0 mm
18:34 32.7 °C 0.7 °C 1006.3 hPa North 22.2 km/h 8.9 km/h 13 % 0 mm
18:39 32.9 °C 0.9 °C 1006.7 hPa WNW 17.7 km/h 14.3 km/h 13 % 0 mm
18:44 32.9 °C 0.8 °C 1006.7 hPa NW 17.7 km/h 14.5 km/h 13 % 0 mm
18:49 32.8 °C 0.7 °C 1006.7 hPa WNW 18.5 km/h 16.6 km/h 13 % 0 mm
18:54 32.7 °C 0.7 °C 1006.7 hPa North 16.1 km/h 16.7 km/h 13 % 0 mm
18:59 32.6 °C -0.5 °C 1006.7 hPa West 18.5 km/h 14 km/h 12 % 0 mm
19:04 32.6 °C -0.6 °C 1006.7 hPa WNW 22.2 km/h 17.4 km/h 12 % 0 mm
19:09 32.4 °C -0.7 °C 1006.7 hPa NNW 18.5 km/h 10.8 km/h 12 % 0 mm
19:14 32.2 °C 0.3 °C 1006.7 hPa WNW 20.4 km/h 12.7 km/h 13 % 0 mm
19:19 32.3 °C 0.3 °C 1006.7 hPa WNW 14.8 km/h 8.9 km/h 13 % 0 mm
19:24 32.3 °C -0.8 °C 1007 hPa West 18.5 km/h 15.8 km/h 12 % 0 mm
19:29 31.9 °C -1 °C 1007 hPa WNW 22.2 km/h 16.1 km/h 12 % 0 mm
19:34 31.9 °C 0.1 °C 1007 hPa WNW 11.1 km/h 5.8 km/h 13 % 0 mm
19:39 31.8 °C 0 °C 1007 hPa NW 14.8 km/h 9.5 km/h 13 % 0 mm
19:44 31.7 °C -0.1 °C 1007.3 hPa South 13 km/h 13 km/h 13 % 0 mm
19:49 29.9 °C 10.4 °C 1007.3 hPa SSW 24.1 km/h 17.2 km/h 30 % 0 mm
19:54 28.5 °C 11.1 °C 1007.7 hPa SSW 18.5 km/h 8.5 km/h 34 % 0 mm
19:59 27.8 °C 11.3 °C 1007.7 hPa South 20.4 km/h 12.9 km/h 36 % 0 mm
20:04 27.2 °C 11.7 °C 1007.7 hPa SSE 20.4 km/h 16.9 km/h 38 % 0 mm
20:09 26.8 °C 11.7 °C 1007.7 hPa South 22.5 km/h 15.3 km/h 39 % 0 mm
20:14 26.3 °C 12 °C 1007.7 hPa South 18.5 km/h 13.5 km/h 41 % 0 mm
20:19 25.9 °C 12.1 °C 1008 hPa South 18.5 km/h 14.2 km/h 42 % 0 mm
20:24 25.4 °C 12.2 °C 1008 hPa SSW 29 km/h 17.5 km/h 44 % 0 mm
20:29 24.9 °C 12.5 °C 1008 hPa South 13 km/h 9 km/h 46 % 0 mm
20:34 24.6 °C 12.6 °C 1008.4 hPa South 16.7 km/h 10.8 km/h 47 % 0 mm
20:39 24.3 °C 12.6 °C 1008.4 hPa South 13 km/h 11.6 km/h 48 % 0 mm
20:44 24 °C 12.6 °C 1008.4 hPa South 18.5 km/h 13.5 km/h 49 % 0 mm
20:49 23.7 °C 12.7 °C 1008.7 hPa South 16.7 km/h 8.9 km/h 50 % 0 mm
20:53 23.6 °C 12.8 °C 1008.7 hPa South 13 km/h 5.1 km/h 51 % 0 mm
20:59 23.2 °C 12.8 °C 1008.7 hPa South 14.8 km/h 9.8 km/h 52 % 0 mm
21:04 22.9 °C 12.8 °C 1008.7 hPa South 18.5 km/h 12.1 km/h 53 % 0 mm
21:09 22.7 °C 12.9 °C 1009 hPa South 14.8 km/h 6.6 km/h 54 % 0 mm
21:14 22.5 °C 13 °C 1009 hPa South 18.5 km/h 11.3 km/h 55 % 0 mm
21:39 21.4 °C 13.1 °C 1009 hPa South 14.8 km/h 8.9 km/h 59 % 0 mm
21:44 21.2 °C 13.2 °C 1009 hPa South 11.1 km/h 9.7 km/h 60 % 0 mm
21:49 21 °C 12.9 °C 1009 hPa South 14.8 km/h 8.2 km/h 60 % 0 mm
21:54 20.8 °C 13.1 °C 1009.4 hPa South 14.5 km/h 7.9 km/h 61 % 0 mm
21:59 20.7 °C 12.9 °C 1009 hPa South 11.1 km/h 5.5 km/h 61 % 0 mm
22:04 20.6 °C 13 °C 1009 hPa South 13 km/h 5.1 km/h 62 % 0 mm
22:09 20.4 °C 13.1 °C 1009 hPa South 14.8 km/h 9.2 km/h 63 % 0 mm
22:14 20.2 °C 12.9 °C 1009.4 hPa South 14.8 km/h 8.7 km/h 63 % 0 mm
22:19 20.1 °C 13.1 °C 1009.4 hPa South 11.1 km/h 4.2 km/h 64 % 0 mm
22:24 19.9 °C 13.1 °C 1009 hPa South 13 km/h 7.2 km/h 65 % 0 mm
22:29 19.7 °C 12.9 °C 1009.4 hPa South 9.3 km/h 5.1 km/h 65 % 0 mm
22:34 19.6 °C 13.1 °C 1009.4 hPa South 11.1 km/h 7.7 km/h 66 % 0 mm
22:39 19.4 °C 12.9 °C 1009 hPa South 16.7 km/h 7.6 km/h 66 % 0 mm
22:44 19.3 °C 13 °C 1009.4 hPa South 7.4 km/h 5.6 km/h 67 % 0 mm
22:49 19.2 °C 13.1 °C 1009 hPa South 16.7 km/h 5.5 km/h 68 % 0 mm
22:54 19.1 °C 13 °C 1009.4 hPa South 16.7 km/h 10.8 km/h 68 % 0 mm
22:59 18.9 °C 13.1 °C 1009.4 hPa South 14.8 km/h 9.2 km/h 69 % 0 mm
23:04 18.8 °C 12.9 °C 1009.4 hPa South 11.1 km/h 8.9 km/h 69 % 0 mm
23:09 18.7 °C 13.1 °C 1009.4 hPa South 13 km/h 7.9 km/h 70 % 0 mm
23:14 18.6 °C 13 °C 1009.4 hPa South 9.3 km/h 4.5 km/h 70 % 0 mm
23:19 18.5 °C 12.9 °C 1009.4 hPa South 11.1 km/h 7.7 km/h 70 % 0 mm
23:24 18.3 °C 12.8 °C 1009.4 hPa South 5.6 km/h 4.8 km/h 70 % 0 mm
23:29 18.2 °C 12.9 °C 1009.4 hPa South 11.1 km/h 7.7 km/h 71 % 0 mm
23:34 18.1 °C 13 °C 1009.4 hPa South 14.8 km/h 6.4 km/h 72 % 0 mm
23:39 18 °C 12.9 °C 1009.4 hPa South 9.7 km/h 5.1 km/h 72 % 0 mm
23:44 17.9 °C 12.8 °C 1009.4 hPa South 11.1 km/h 8.2 km/h 72 % 0 mm
23:49 17.9 °C 13.1 °C 1009.4 hPa South 11.1 km/h 9 km/h 73 % 0 mm
23:54 17.9 °C 13 °C 1009.4 hPa South 11.3 km/h 7.4 km/h 73 % 0 mm
23:59 17.8 °C 12.9 °C 1009.4 hPa South 8 km/h 5.5 km/h 73 % 0 mm
Ararat Weather
Compliments of Weather Underground - 2.25 mb
Click here to send mail.


ABOUT

Live weather data from Ararat, Victoria, Australia, 3377
Data uploaded from Cumulus every 5 minutes to Weather Underground.
This site then downloads the raw data for formatting and display.
Metric and imperial data can be displayed. Graphs and historical data available.
Includes Sun and Moon times and rain image live from BOM.

Check out Ararat Weather on Facebook, Twitter and Google +

Help support ongoing costs by checking out the ads





Follow @AraratWeather